createdAt,value
2017-09-11T00:00:44.798Z,0.00
2017-09-11T00:01:44.788Z,0.00
2017-09-11T00:02:44.776Z,0.00
2017-09-11T00:03:44.763Z,0.00
2017-09-11T00:04:45.065Z,0.00
2017-09-11T00:05:44.749Z,0.00
2017-09-11T00:06:44.738Z,0.00
2017-09-11T00:07:44.726Z,0.00
2017-09-11T00:08:44.719Z,0.00
2017-09-11T00:09:44.706Z,0.00
2017-09-11T00:10:44.725Z,0.00
2017-09-11T00:11:44.702Z,0.00
2017-09-11T00:12:44.678Z,0.00
2017-09-11T00:13:44.679Z,0.00
2017-09-11T00:14:44.657Z,0.00
2017-09-11T00:15:45.078Z,0.00
2017-09-11T00:16:44.639Z,0.00
2017-09-11T00:17:44.630Z,0.00
2017-09-11T00:18:44.616Z,0.00
2017-09-11T00:19:44.614Z,0.00
2017-09-11T00:20:44.600Z,0.00
2017-09-11T00:21:44.901Z,0.00
2017-09-11T00:22:44.577Z,0.00
2017-09-11T00:23:44.571Z,0.00
2017-09-11T00:24:44.565Z,0.00
2017-09-11T00:25:44.553Z,0.00
2017-09-11T00:26:44.541Z,0.00
2017-09-11T00:27:44.561Z,0.00
2017-09-11T00:28:44.522Z,0.00
2017-09-11T00:29:44.515Z,0.00
2017-09-11T00:30:44.499Z,0.00
2017-09-11T00:31:44.491Z,0.00
2017-09-11T00:32:44.846Z,0.00
2017-09-11T00:33:44.474Z,0.00
2017-09-11T00:34:44.459Z,0.00
2017-09-11T00:35:44.462Z,0.00
2017-09-11T00:36:44.440Z,0.00
2017-09-11T00:37:44.432Z,0.00
2017-09-11T00:38:44.768Z,0.00
2017-09-11T00:39:44.414Z,0.00
2017-09-11T00:40:44.402Z,0.00
2017-09-11T00:41:44.395Z,0.00
2017-09-11T00:42:44.398Z,0.00
2017-09-11T00:43:44.378Z,0.00
2017-09-11T00:44:44.804Z,0.00
2017-09-11T00:45:44.356Z,0.00
2017-09-11T00:46:44.344Z,0.00
2017-09-11T00:47:44.331Z,0.00
2017-09-11T00:48:44.329Z,0.00
2017-09-11T00:49:44.325Z,0.00
2017-09-11T00:50:44.340Z,0.00
2017-09-11T00:51:44.293Z,0.00
2017-09-11T00:52:44.502Z,0.00
2017-09-11T00:53:44.280Z,0.00
2017-09-11T00:54:44.269Z,0.00
2017-09-11T00:55:44.257Z,0.00
2017-09-11T00:56:44.247Z,0.00
2017-09-11T00:57:44.242Z,0.00
2017-09-11T00:58:44.533Z,0.00
2017-09-11T00:59:44.219Z,0.00
2017-09-11T01:00:44.217Z,0.00
2017-09-11T01:01:44.193Z,0.00
2017-09-11T01:02:44.203Z,0.00
2017-09-11T01:03:44.176Z,0.00
2017-09-11T01:04:44.603Z,0.00
2017-09-11T01:05:44.156Z,0.00
2017-09-11T01:06:44.145Z,0.00
2017-09-11T01:07:44.133Z,0.00
2017-09-11T01:08:44.125Z,0.00
2017-09-11T01:09:44.122Z,0.00
2017-09-11T01:10:44.419Z,0.00
2017-09-11T01:11:44.103Z,0.00
2017-09-11T01:12:44.086Z,0.00
2017-09-11T01:13:44.078Z,0.00
2017-09-11T01:14:44.063Z,0.00
2017-09-11T01:15:44.066Z,0.00
2017-09-11T01:16:44.079Z,0.00
2017-09-11T01:17:44.035Z,0.00
2017-09-11T01:18:44.026Z,0.00
2017-09-11T01:19:44.442Z,0.00
2017-09-11T01:20:44.004Z,0.00
2017-09-11T01:21:44.006Z,0.00
2017-09-11T01:22:43.982Z,0.00
2017-09-11T01:23:43.982Z,0.00
2017-09-11T01:24:43.971Z,0.00
2017-09-11T01:25:43.987Z,0.00
2017-09-11T01:26:43.945Z,0.00
2017-09-11T01:27:43.936Z,0.00
2017-09-11T01:28:43.936Z,0.00
2017-09-11T01:29:43.943Z,0.00
2017-09-11T01:30:43.911Z,0.00
2017-09-11T01:31:43.894Z,0.00
2017-09-11T01:32:43.882Z,0.00
2017-09-11T01:33:43.888Z,0.00
2017-09-11T01:34:44.167Z,0.00
2017-09-11T01:35:43.869Z,0.00
2017-09-11T01:36:43.855Z,0.00
2017-09-11T01:37:43.859Z,0.00
2017-09-11T01:38:43.824Z,0.00
2017-09-11T01:39:43.814Z,0.00
2017-09-11T01:40:44.120Z,0.00
2017-09-11T01:41:43.798Z,0.00
2017-09-11T01:42:43.798Z,0.00
2017-09-11T01:43:43.772Z,0.00
2017-09-11T01:44:43.772Z,0.00
2017-09-11T01:45:43.756Z,0.00
2017-09-11T01:46:44.101Z,0.00
2017-09-11T01:47:43.736Z,0.00
2017-09-11T01:48:43.735Z,0.00
2017-09-11T01:49:43.721Z,0.00
2017-09-11T01:50:43.705Z,0.00
2017-09-11T01:51:43.702Z,0.00
2017-09-11T01:52:44.044Z,0.00
2017-09-11T01:53:43.682Z,0.00
2017-09-11T01:54:43.674Z,0.00
2017-09-11T01:55:43.655Z,0.00
2017-09-11T01:56:43.652Z,0.00
2017-09-11T01:57:43.639Z,0.00
2017-09-11T01:58:44.014Z,0.00
2017-09-11T01:59:43.617Z,0.00
2017-09-11T02:00:43.604Z,0.00
2017-09-11T02:01:43.611Z,0.00
2017-09-11T02:02:43.583Z,0.00
2017-09-11T02:03:43.574Z,0.00
2017-09-11T02:04:43.995Z,0.00
2017-09-11T02:05:43.558Z,0.00
2017-09-11T02:06:43.549Z,0.00
2017-09-11T02:07:43.532Z,0.00
2017-09-11T02:08:43.526Z,0.00
2017-09-11T02:09:43.514Z,0.00
2017-09-11T02:10:43.528Z,0.00
2017-09-11T02:11:43.493Z,0.00
2017-09-11T02:12:43.484Z,0.00
2017-09-11T02:13:43.475Z,0.00
2017-09-11T02:14:43.489Z,0.00
2017-09-11T02:15:43.457Z,0.00
2017-09-11T02:16:43.445Z,0.00
2017-09-11T02:17:43.447Z,0.00
2017-09-11T02:18:43.422Z,0.00
2017-09-11T02:19:43.841Z,0.00
2017-09-11T02:20:43.401Z,0.00
2017-09-11T02:21:43.397Z,0.00
2017-09-11T02:22:43.378Z,0.00
2017-09-11T02:23:43.374Z,0.00
2017-09-11T02:24:43.361Z,0.00
2017-09-11T02:25:43.671Z,0.00
2017-09-11T02:26:43.341Z,0.00
2017-09-11T02:27:43.341Z,0.00
2017-09-11T02:28:43.322Z,0.00
2017-09-11T02:29:43.313Z,0.00
2017-09-11T02:30:43.304Z,0.00
2017-09-11T02:31:43.611Z,0.00
2017-09-11T02:32:43.283Z,0.00
2017-09-11T02:33:43.282Z,0.00
2017-09-11T02:34:43.263Z,0.00
2017-09-11T02:35:43.265Z,0.00
2017-09-11T02:36:43.244Z,0.00
2017-09-11T02:37:43.526Z,0.00
2017-09-11T02:38:43.221Z,0.00
2017-09-11T02:39:43.209Z,0.00
2017-09-11T02:40:43.203Z,0.00
2017-09-11T02:41:43.192Z,0.00
2017-09-11T02:42:43.197Z,0.00
2017-09-11T02:43:43.528Z,0.00
2017-09-11T02:44:43.169Z,0.00
2017-09-11T02:45:43.150Z,0.00
2017-09-11T02:46:43.145Z,0.00
2017-09-11T02:47:43.134Z,0.00
2017-09-11T02:48:43.125Z,0.00
2017-09-11T02:49:43.445Z,0.00
2017-09-11T02:50:43.098Z,0.00
2017-09-11T02:51:43.090Z,0.00
2017-09-11T02:52:43.077Z,0.00
2017-09-11T02:53:43.086Z,0.00
2017-09-11T02:54:43.061Z,0.00
2017-09-11T02:55:43.395Z,0.00
2017-09-11T02:56:43.042Z,0.00
2017-09-11T02:57:43.033Z,0.00
2017-09-11T02:58:43.018Z,0.00
2017-09-11T02:59:43.027Z,0.00
2017-09-11T03:00:42.996Z,0.00
2017-09-11T03:01:43.213Z,0.00
2017-09-11T03:02:42.978Z,0.00
2017-09-11T03:03:42.975Z,0.00
2017-09-11T03:04:42.964Z,0.00
2017-09-11T03:05:42.953Z,0.00
2017-09-11T03:06:42.940Z,0.00
2017-09-11T03:07:42.970Z,0.00
2017-09-11T03:08:42.927Z,0.00
2017-09-11T03:09:42.911Z,0.00
2017-09-11T03:10:42.901Z,0.00
2017-09-11T03:11:42.894Z,0.00
2017-09-11T03:12:42.916Z,0.00
2017-09-11T03:13:42.879Z,0.00
2017-09-11T03:14:42.860Z,0.00
2017-09-11T03:15:42.850Z,0.00
2017-09-11T03:16:42.841Z,0.00
2017-09-11T03:17:43.125Z,0.00
2017-09-11T03:18:42.827Z,0.00
2017-09-11T03:19:42.810Z,0.00
2017-09-11T03:20:42.797Z,0.00
2017-09-11T03:21:42.788Z,0.00
2017-09-11T03:22:42.780Z,0.00
2017-09-11T03:23:42.795Z,0.00
2017-09-11T03:24:42.767Z,0.00
2017-09-11T03:25:42.752Z,0.00
2017-09-11T03:26:42.751Z,0.00
2017-09-11T03:27:42.725Z,0.00
2017-09-11T03:28:42.752Z,0.00
2017-09-11T03:29:42.702Z,0.00
2017-09-11T03:30:42.699Z,0.00
2017-09-11T03:31:42.684Z,0.00
2017-09-11T03:32:42.677Z,0.00
2017-09-11T03:33:43.053Z,0.00
2017-09-11T03:34:42.660Z,0.00
2017-09-11T03:35:42.646Z,0.00
2017-09-11T03:36:42.633Z,0.00
2017-09-11T03:37:42.637Z,0.00
2017-09-11T03:38:42.617Z,0.00
2017-09-11T03:39:42.943Z,0.00
2017-09-11T03:40:42.601Z,0.00
2017-09-11T03:41:42.587Z,0.00
2017-09-11T03:42:42.581Z,0.00
2017-09-11T03:43:42.564Z,0.00
2017-09-11T03:44:42.551Z,0.00
2017-09-11T03:45:42.574Z,0.00
2017-09-11T03:46:42.539Z,0.00
2017-09-11T03:47:42.524Z,0.00
2017-09-11T03:48:42.961Z,0.00
2017-09-11T03:49:42.508Z,0.00
2017-09-11T03:50:42.493Z,0.00
2017-09-11T03:51:42.485Z,0.00
2017-09-11T03:52:42.475Z,0.00
2017-09-11T03:53:42.464Z,0.00
2017-09-11T03:54:42.898Z,0.00
2017-09-11T03:55:42.447Z,0.00
2017-09-11T03:56:42.433Z,0.00
2017-09-11T03:57:42.419Z,0.00
2017-09-11T03:58:42.413Z,0.00
2017-09-11T03:59:42.406Z,0.00
2017-09-11T04:00:42.425Z,0.00
2017-09-11T04:01:42.385Z,0.00
2017-09-11T04:02:42.368Z,0.00
2017-09-11T04:03:42.364Z,0.00
2017-09-11T04:04:42.349Z,0.00
2017-09-11T04:05:42.373Z,0.00
2017-09-11T04:06:42.329Z,0.00
2017-09-11T04:07:42.314Z,0.00
2017-09-11T04:08:42.310Z,0.00
2017-09-11T04:09:42.303Z,0.00
2017-09-11T04:10:42.377Z,0.00
2017-09-11T04:11:42.298Z,0.00
2017-09-11T04:12:42.274Z,0.00
2017-09-11T04:13:42.259Z,0.00
2017-09-11T04:14:42.245Z,0.00
2017-09-11T04:15:42.234Z,0.00
2017-09-11T04:16:42.655Z,0.00
2017-09-11T04:17:42.220Z,0.00
2017-09-11T04:18:42.218Z,0.00
2017-09-11T04:19:42.197Z,0.00
2017-09-11T04:20:42.196Z,0.00
2017-09-11T04:21:42.174Z,0.00
2017-09-11T04:22:42.469Z,0.00
2017-09-11T04:23:42.151Z,0.00
2017-09-11T04:24:42.147Z,0.00
2017-09-11T04:25:42.140Z,0.00
2017-09-11T04:26:42.123Z,0.00
2017-09-11T04:27:42.113Z,0.00
2017-09-11T04:28:42.488Z,0.00
2017-09-11T04:29:42.095Z,0.00
2017-09-11T04:30:42.083Z,0.00
2017-09-11T04:31:42.075Z,0.00
2017-09-11T04:32:42.062Z,0.00
2017-09-11T04:33:42.068Z,0.00
2017-09-11T04:34:42.344Z,0.00
2017-09-11T04:35:42.034Z,0.00
2017-09-11T04:36:42.018Z,0.00
2017-09-11T04:37:42.010Z,0.00
2017-09-11T04:38:42.003Z,0.00
2017-09-11T04:39:41.991Z,0.00
2017-09-11T04:40:42.429Z,0.00
2017-09-11T04:41:41.972Z,0.00
2017-09-11T04:42:41.969Z,0.00
2017-09-11T04:43:41.951Z,0.00
2017-09-11T04:44:41.950Z,0.00
2017-09-11T04:45:41.937Z,0.00
2017-09-11T04:46:42.132Z,0.00
2017-09-11T04:47:41.948Z,0.00
2017-09-11T04:48:41.903Z,0.00
2017-09-11T04:49:41.901Z,0.00
2017-09-11T04:50:41.889Z,0.00
2017-09-11T04:51:41.875Z,0.00
2017-09-11T04:52:41.898Z,0.00
2017-09-11T04:53:41.847Z,0.00
2017-09-11T04:54:41.843Z,0.00
2017-09-11T04:55:41.833Z,0.00
2017-09-11T04:56:41.817Z,0.00
2017-09-11T04:57:42.068Z,0.00
2017-09-11T04:58:41.797Z,0.00
2017-09-11T04:59:41.791Z,0.00
2017-09-11T05:00:41.774Z,0.00
2017-09-11T05:01:41.771Z,0.00
2017-09-11T05:02:41.761Z,0.00
2017-09-11T05:03:42.034Z,0.00
2017-09-11T05:04:41.745Z,0.00
2017-09-11T05:05:41.720Z,0.00
2017-09-11T05:06:41.716Z,0.00
2017-09-11T05:07:41.704Z,0.00
2017-09-11T05:08:41.694Z,0.00
2017-09-11T05:09:42.122Z,0.00
2017-09-11T05:10:41.672Z,0.00
2017-09-11T05:11:41.674Z,0.00
2017-09-11T05:12:41.652Z,0.00
2017-09-11T05:13:41.660Z,0.00
2017-09-11T05:14:41.632Z,0.00
2017-09-11T05:15:41.929Z,0.00
2017-09-11T05:16:41.608Z,0.00
2017-09-11T05:17:41.597Z,0.00
2017-09-11T05:18:41.589Z,0.00
2017-09-11T05:19:41.592Z,0.00
2017-09-11T05:20:41.580Z,0.00
2017-09-11T05:21:41.999Z,0.00
2017-09-11T05:22:41.552Z,0.00
2017-09-11T05:23:41.541Z,0.00
2017-09-11T05:24:41.524Z,0.00
2017-09-11T05:25:41.521Z,0.00
2017-09-11T05:26:41.501Z,0.00
2017-09-11T05:27:41.810Z,0.00
2017-09-11T05:28:41.484Z,0.00
2017-09-11T05:29:41.477Z,0.00
2017-09-11T05:30:41.464Z,0.00
2017-09-11T05:31:41.468Z,0.00
2017-09-11T05:32:41.441Z,0.00
2017-09-11T05:33:41.751Z,0.00
2017-09-11T05:34:41.423Z,0.00
2017-09-11T05:35:41.410Z,0.00
2017-09-11T05:36:41.406Z,0.00
2017-09-11T05:37:41.391Z,0.00
2017-09-11T05:38:41.378Z,0.00
2017-09-11T05:39:41.717Z,0.00
2017-09-11T05:40:41.363Z,5.63
2017-09-11T05:41:41.351Z,0.00
2017-09-11T05:42:41.348Z,0.00
2017-09-11T05:43:41.324Z,5.63
2017-09-11T05:44:41.315Z,5.63
2017-09-11T05:45:41.329Z,5.63
2017-09-11T05:46:41.290Z,0.00
2017-09-11T05:47:41.587Z,5.63
2017-09-11T05:48:41.280Z,5.63
2017-09-11T05:49:41.260Z,5.63
2017-09-11T05:50:41.254Z,5.63
2017-09-11T05:51:41.246Z,5.63
2017-09-11T05:52:41.230Z,5.63
2017-09-11T05:53:41.507Z,5.63
2017-09-11T05:54:41.218Z,5.63
2017-09-11T05:55:41.204Z,5.63
2017-09-11T05:56:41.202Z,5.63
2017-09-11T05:57:41.176Z,5.63
2017-09-11T05:58:41.169Z,5.63
2017-09-11T05:59:41.184Z,5.63
2017-09-11T06:00:41.154Z,0.00
2017-09-11T06:01:41.138Z,0.00
2017-09-11T06:02:41.139Z,0.00
2017-09-11T06:03:41.535Z,0.00
2017-09-11T06:04:41.114Z,0.00
2017-09-11T06:05:41.095Z,0.00
2017-09-11T06:06:41.092Z,0.00
2017-09-11T06:07:41.072Z,5.63
2017-09-11T06:08:41.071Z,0.00
2017-09-11T06:09:41.399Z,5.63
2017-09-11T06:10:41.038Z,0.00
2017-09-11T06:11:41.033Z,0.00
2017-09-11T06:12:41.026Z,0.00
2017-09-11T06:13:41.016Z,5.63
2017-09-11T06:14:41.000Z,5.63
2017-09-11T06:15:41.425Z,0.00
2017-09-11T06:16:40.980Z,5.63
2017-09-11T06:17:40.969Z,5.63
2017-09-11T06:18:40.965Z,0.00
2017-09-11T06:19:40.947Z,0.00
2017-09-11T06:20:40.947Z,0.00
2017-09-11T06:21:41.246Z,0.00
2017-09-11T06:22:40.918Z,5.63
2017-09-11T06:23:40.912Z,5.63
2017-09-11T06:24:40.895Z,5.63
2017-09-11T06:25:40.897Z,5.63
2017-09-11T06:26:40.885Z,5.63
2017-09-11T06:27:41.270Z,11.25
2017-09-11T06:28:40.859Z,11.25
2017-09-11T06:29:40.849Z,11.25
2017-09-11T06:30:40.829Z,5.63
2017-09-11T06:31:40.827Z,11.25
2017-09-11T06:32:40.826Z,11.25
2017-09-11T06:33:40.829Z,16.88
2017-09-11T06:34:40.804Z,16.88
2017-09-11T06:35:40.788Z,22.50
2017-09-11T06:36:40.771Z,22.50
2017-09-11T06:37:40.761Z,28.13
2017-09-11T06:38:41.097Z,28.13
2017-09-11T06:39:40.739Z,28.13
2017-09-11T06:40:40.735Z,28.13
2017-09-11T06:41:40.722Z,28.13
2017-09-11T06:42:40.707Z,33.75
2017-09-11T06:43:40.698Z,22.50
2017-09-11T06:44:41.145Z,11.25
2017-09-11T06:45:40.682Z,11.25
2017-09-11T06:46:40.679Z,11.25
2017-09-11T06:47:40.655Z,16.88
2017-09-11T06:48:40.653Z,22.50
2017-09-11T06:49:40.643Z,28.13
2017-09-11T06:50:41.079Z,33.75
2017-09-11T06:51:40.615Z,33.75
2017-09-11T06:52:40.605Z,33.75
2017-09-11T06:53:40.600Z,33.75
2017-09-11T06:54:40.586Z,28.13
2017-09-11T06:55:40.571Z,28.13
2017-09-11T06:56:40.936Z,33.75
2017-09-11T06:57:40.555Z,39.38
2017-09-11T06:58:40.544Z,33.75
2017-09-11T06:59:40.530Z,33.75
2017-09-11T07:00:40.526Z,33.75
2017-09-11T07:01:40.519Z,33.75
2017-09-11T07:02:40.881Z,33.75
2017-09-11T07:03:40.501Z,33.75
2017-09-11T07:04:40.479Z,33.75
2017-09-11T07:05:40.472Z,33.75
2017-09-11T07:06:40.458Z,33.75
2017-09-11T07:07:40.489Z,33.75
2017-09-11T07:08:40.746Z,28.13
2017-09-11T07:09:40.433Z,33.75
2017-09-11T07:10:40.415Z,39.38
2017-09-11T07:11:40.449Z,39.38
2017-09-11T07:12:40.404Z,39.38
2017-09-11T07:13:40.395Z,45.00
2017-09-11T07:14:40.606Z,39.38
2017-09-11T07:15:40.370Z,45.00
2017-09-11T07:16:40.368Z,56.25
2017-09-11T07:17:40.348Z,56.25
2017-09-11T07:18:40.350Z,56.25
2017-09-11T07:19:40.325Z,50.63
2017-09-11T07:20:40.527Z,50.63
2017-09-11T07:21:40.308Z,45.00
2017-09-11T07:22:40.301Z,50.63
2017-09-11T07:23:40.285Z,50.63
2017-09-11T07:24:40.280Z,56.25
2017-09-11T07:25:40.283Z,61.88
2017-09-11T07:26:40.296Z,61.88
2017-09-11T07:27:40.245Z,45.00
2017-09-11T07:28:40.245Z,45.00
2017-09-11T07:29:40.229Z,50.63
2017-09-11T07:30:40.429Z,45.00
2017-09-11T07:31:40.216Z,50.63
2017-09-11T07:32:40.203Z,56.25
2017-09-11T07:33:40.186Z,56.25
2017-09-11T07:34:40.180Z,61.88
2017-09-11T07:35:40.169Z,56.25
2017-09-11T07:36:40.201Z,61.88
2017-09-11T07:37:40.148Z,50.63
2017-09-11T07:39:01.155Z,50.63
2017-09-11T07:39:40.155Z,45.00
2017-09-11T07:40:40.118Z,45.00
2017-09-11T07:41:40.115Z,45.00
2017-09-11T07:42:40.099Z,39.38
2017-09-11T07:43:40.094Z,39.38
2017-09-11T07:44:40.309Z,33.75
2017-09-11T07:45:40.066Z,39.38
2017-09-11T07:46:40.062Z,33.75
2017-09-11T07:47:40.046Z,33.75
2017-09-11T07:48:40.040Z,33.75
2017-09-11T07:49:40.042Z,33.75
2017-09-11T07:50:40.233Z,28.13
2017-09-11T07:51:40.030Z,22.50
2017-09-11T07:52:40.000Z,16.88
2017-09-11T07:53:40.005Z,22.50
2017-09-11T07:54:39.977Z,22.50
2017-09-11T07:55:39.972Z,22.50
2017-09-11T07:56:39.990Z,28.13
2017-09-11T07:57:39.954Z,28.13
2017-09-11T07:58:39.947Z,28.13
2017-09-11T07:59:39.965Z,33.75
2017-09-11T08:00:39.930Z,33.75
2017-09-11T08:01:39.919Z,33.75
2017-09-11T08:02:39.903Z,33.75
2017-09-11T08:03:39.896Z,28.13
2017-09-11T08:04:40.217Z,28.13
2017-09-11T08:05:39.874Z,28.13
2017-09-11T08:06:39.858Z,22.50
2017-09-11T08:07:39.854Z,28.13
2017-09-11T08:08:39.854Z,28.13
2017-09-11T08:09:39.843Z,33.75
2017-09-11T08:10:39.869Z,33.75
2017-09-11T08:11:39.811Z,33.75
2017-09-11T08:12:39.797Z,33.75
2017-09-11T08:13:39.791Z,33.75
2017-09-11T08:14:40.213Z,28.13
2017-09-11T08:15:39.776Z,28.13
2017-09-11T08:16:39.761Z,22.50
2017-09-11T08:17:39.764Z,28.13
2017-09-11T08:18:39.742Z,33.75
2017-09-11T08:19:39.735Z,39.38
2017-09-11T08:20:39.751Z,39.38
2017-09-11T08:21:39.708Z,33.75
2017-09-11T08:22:39.706Z,33.75
2017-09-11T08:23:39.692Z,39.38
2017-09-11T08:24:39.692Z,50.63
2017-09-11T08:25:40.017Z,56.25
2017-09-11T08:26:39.667Z,67.50
2017-09-11T08:27:39.648Z,61.88
2017-09-11T08:28:39.641Z,45.00
2017-09-11T08:29:39.628Z,50.63
2017-09-11T08:30:39.617Z,45.00
2017-09-11T08:31:40.151Z,50.63
2017-09-11T08:32:39.630Z,39.38
2017-09-11T08:33:39.594Z,28.13
2017-09-11T08:34:39.582Z,28.13
2017-09-11T08:35:39.570Z,33.75
2017-09-11T08:36:39.557Z,28.13
2017-09-11T08:37:39.840Z,28.13
2017-09-11T08:38:39.534Z,28.13
2017-09-11T08:39:39.547Z,33.75
2017-09-11T08:40:39.517Z,39.38
2017-09-11T08:41:39.509Z,33.75
2017-09-11T08:42:39.492Z,39.38
2017-09-11T08:43:39.715Z,33.75
2017-09-11T08:44:39.477Z,39.38
2017-09-11T08:45:39.477Z,45.00
2017-09-11T08:46:39.460Z,45.00
2017-09-11T08:47:39.455Z,45.00
2017-09-11T08:48:39.436Z,45.00
2017-09-11T08:49:39.462Z,50.63
2017-09-11T08:50:39.414Z,45.00
2017-09-11T08:51:39.406Z,39.38
2017-09-11T08:52:39.398Z,45.00
2017-09-11T08:53:39.388Z,45.00
2017-09-11T08:54:39.374Z,50.63
2017-09-11T08:55:39.655Z,50.63
2017-09-11T08:56:39.357Z,45.00
2017-09-11T08:57:39.352Z,50.63
2017-09-11T08:58:39.340Z,45.00
2017-09-11T08:59:39.329Z,45.00
2017-09-11T09:00:39.325Z,45.00
2017-09-11T09:01:39.680Z,50.63
2017-09-11T09:02:39.320Z,61.88
2017-09-11T09:03:45.996Z,61.88
2017-09-11T09:04:39.292Z,50.63
2017-09-11T09:05:39.284Z,50.63
2017-09-11T09:06:39.271Z,45.00
2017-09-11T09:07:39.596Z,50.63
2017-09-11T09:08:39.936Z,45.00
2017-09-11T09:09:39.227Z,56.25
2017-09-11T09:10:39.230Z,56.25
2017-09-11T09:11:39.219Z,56.25
2017-09-11T09:12:39.210Z,56.25
2017-09-11T09:13:39.297Z,56.25
2017-09-11T09:14:39.186Z,56.25
2017-09-11T09:15:39.178Z,56.25
2017-09-11T09:16:39.192Z,50.63
2017-09-11T09:17:39.154Z,56.25
2017-09-11T09:18:39.178Z,56.25
2017-09-11T09:19:39.129Z,61.88
2017-09-11T09:20:39.133Z,50.63
2017-09-11T09:21:39.546Z,78.75
2017-09-11T09:22:39.108Z,56.25
2017-09-11T09:23:39.088Z,61.88
2017-09-11T09:24:39.080Z,67.50
2017-09-11T09:25:39.069Z,73.13
2017-09-11T09:26:39.071Z,56.25
2017-09-11T09:27:39.513Z,61.88
2017-09-11T09:28:39.044Z,78.75
2017-09-11T09:29:39.049Z,84.38
2017-09-11T09:30:39.024Z,73.13
2017-09-11T09:31:39.016Z,67.50
2017-09-11T09:32:39.006Z,61.88
2017-09-11T09:33:39.368Z,56.25
2017-09-11T09:34:39.002Z,56.25
2017-09-11T09:35:39.003Z,61.88
2017-09-11T09:36:38.966Z,61.88
2017-09-11T09:37:38.966Z,56.25
2017-09-11T09:38:38.945Z,56.25
2017-09-11T09:39:38.974Z,56.25
2017-09-11T09:40:38.932Z,56.25
2017-09-11T09:41:38.921Z,50.63
2017-09-11T09:42:38.912Z,56.25
2017-09-11T09:43:38.906Z,67.50
2017-09-11T09:44:38.891Z,61.88
2017-09-11T09:45:39.194Z,67.50
2017-09-11T09:46:38.877Z,61.88
2017-09-11T09:47:38.863Z,73.13
2017-09-11T09:48:38.861Z,61.88
2017-09-11T09:49:38.849Z,67.50
2017-09-11T09:50:38.832Z,73.13
2017-09-11T09:51:38.995Z,61.88
2017-09-11T09:52:38.836Z,67.50
2017-09-11T09:53:38.807Z,78.75
2017-09-11T09:54:38.816Z,56.25
2017-09-11T09:55:38.788Z,67.50
2017-09-11T09:56:38.778Z,61.88
2017-09-11T09:57:39.129Z,61.88
2017-09-11T09:58:38.766Z,61.88
2017-09-11T09:59:38.748Z,78.75
2017-09-11T10:00:38.752Z,95.63
2017-09-11T10:01:38.731Z,84.38
2017-09-11T10:02:38.737Z,95.63
2017-09-11T10:03:38.986Z,84.38
2017-09-11T10:04:38.705Z,90.00
2017-09-11T10:05:38.737Z,78.75
2017-09-11T10:06:38.685Z,50.63
2017-09-11T10:07:38.688Z,45.00
2017-09-11T10:08:38.672Z,33.75
2017-09-11T10:09:39.093Z,33.75
2017-09-11T10:10:38.647Z,33.75
2017-09-11T10:11:38.639Z,28.13
2017-09-11T10:12:38.632Z,39.38
2017-09-11T10:13:38.627Z,50.63
2017-09-11T10:14:38.627Z,45.00
2017-09-11T10:15:39.017Z,78.75
2017-09-11T10:16:38.607Z,123.75
2017-09-11T10:17:38.599Z,78.75
2017-09-11T10:18:38.584Z,90.00
2017-09-11T10:19:38.568Z,106.88
2017-09-11T10:20:38.554Z,106.88
2017-09-11T10:21:38.982Z,135.00
2017-09-11T10:22:38.535Z,129.38
2017-09-11T10:23:38.541Z,84.38
2017-09-11T10:24:38.519Z,90.00
2017-09-11T10:25:38.515Z,84.38
2017-09-11T10:26:38.522Z,90.00
2017-09-11T10:27:38.890Z,73.13
2017-09-11T10:28:38.484Z,84.38
2017-09-11T10:29:38.475Z,84.38
2017-09-11T10:30:38.463Z,78.75
2017-09-11T10:31:38.466Z,78.75
2017-09-11T10:32:38.452Z,112.50
2017-09-11T10:33:38.676Z,95.63
2017-09-11T10:34:38.428Z,135.00
2017-09-11T10:35:38.418Z,95.63
2017-09-11T10:36:38.412Z,78.75
2017-09-11T10:37:38.408Z,78.75
2017-09-11T10:38:38.392Z,84.38
2017-09-11T10:39:38.509Z,84.38
2017-09-11T10:40:38.378Z,67.50
2017-09-11T10:41:38.378Z,56.25
2017-09-11T10:42:38.382Z,45.00
2017-09-11T10:43:38.352Z,45.00
2017-09-11T10:44:38.366Z,45.00
2017-09-11T10:45:38.700Z,39.38
2017-09-11T10:46:38.323Z,45.00
2017-09-11T10:47:38.316Z,39.38
2017-09-11T10:48:38.306Z,39.38
2017-09-11T10:49:38.295Z,39.38
2017-09-11T10:50:38.294Z,39.38
2017-09-11T10:51:38.499Z,39.38
2017-09-11T10:52:38.282Z,33.75
2017-09-11T10:53:38.267Z,28.13
2017-09-11T10:54:38.256Z,22.50
2017-09-11T10:55:38.243Z,22.50
2017-09-11T10:56:38.249Z,28.13
2017-09-11T10:57:38.520Z,39.38
2017-09-11T10:58:38.230Z,45.00
2017-09-11T10:59:38.207Z,50.63
2017-09-11T11:00:38.203Z,56.25
2017-09-11T11:01:38.189Z,56.25
2017-09-11T11:02:38.183Z,61.88
2017-09-11T11:03:38.461Z,84.38
2017-09-11T11:04:38.175Z,78.75
2017-09-11T11:05:38.153Z,67.50
2017-09-11T11:06:38.144Z,67.50
2017-09-11T11:07:38.141Z,67.50
2017-09-11T11:08:38.120Z,67.50
2017-09-11T11:09:38.553Z,67.50
2017-09-11T11:10:38.110Z,67.50
2017-09-11T11:11:38.097Z,73.13
2017-09-11T11:12:38.082Z,73.13
2017-09-11T11:13:38.085Z,67.50
2017-09-11T11:14:38.068Z,67.50
2017-09-11T11:15:38.096Z,67.50
2017-09-11T11:16:38.075Z,67.50
2017-09-11T11:17:38.468Z,67.50
2017-09-11T11:18:38.027Z,73.13
2017-09-11T11:19:38.014Z,73.13
2017-09-11T11:20:38.007Z,73.13
2017-09-11T11:21:38.002Z,73.13
2017-09-11T11:22:37.991Z,78.75
2017-09-11T11:23:38.318Z,78.75
2017-09-11T11:24:37.963Z,95.63
2017-09-11T11:25:37.964Z,73.13
2017-09-11T11:26:37.956Z,95.63
2017-09-11T11:27:38.097Z,106.88
2017-09-11T11:28:37.932Z,101.25
2017-09-11T11:29:38.493Z,112.50
2017-09-11T11:30:37.908Z,118.13
2017-09-11T11:31:37.955Z,112.50
2017-09-11T11:32:37.895Z,95.63
2017-09-11T11:33:37.880Z,95.63
2017-09-11T11:34:38.219Z,90.00
2017-09-11T11:35:37.866Z,90.00
2017-09-11T11:36:37.855Z,101.25
2017-09-11T11:37:37.840Z,112.50
2017-09-11T11:38:37.835Z,112.50
2017-09-11T11:39:37.825Z,129.38
2017-09-11T11:40:38.175Z,118.13
2017-09-11T11:41:37.811Z,123.75
2017-09-11T11:42:37.800Z,106.88
2017-09-11T11:43:37.793Z,112.50
2017-09-11T11:44:37.774Z,118.13
2017-09-11T11:45:37.766Z,106.88
2017-09-11T11:46:38.223Z,95.63
2017-09-11T11:47:37.747Z,90.00
2017-09-11T11:48:37.750Z,101.25
2017-09-11T11:49:37.731Z,101.25
2017-09-11T11:50:37.716Z,95.63
2017-09-11T11:51:37.707Z,95.63
2017-09-11T11:52:38.076Z,95.63
2017-09-11T11:53:37.693Z,140.63
2017-09-11T11:54:37.682Z,106.88
2017-09-11T11:55:37.672Z,106.88
2017-09-11T11:56:37.695Z,106.88
2017-09-11T11:57:37.650Z,95.63
2017-09-11T11:58:38.098Z,140.63
2017-09-11T11:59:37.637Z,123.75
2017-09-11T12:00:37.628Z,84.38
2017-09-11T12:01:37.626Z,67.50
2017-09-11T12:02:37.608Z,101.25
2017-09-11T12:03:37.596Z,123.75
2017-09-11T12:04:37.615Z,67.50
2017-09-11T12:05:37.583Z,118.13
2017-09-11T12:06:37.580Z,101.25
2017-09-11T12:07:37.564Z,95.63
2017-09-11T12:08:37.598Z,140.63
2017-09-11T12:09:37.542Z,106.88
2017-09-11T12:10:37.532Z,123.75
2017-09-11T12:11:37.533Z,118.13
2017-09-11T12:12:37.514Z,135.00
2017-09-11T12:13:37.882Z,106.88
2017-09-11T12:14:37.502Z,112.50
2017-09-11T12:15:37.502Z,146.25
2017-09-11T12:16:37.482Z,129.38
2017-09-11T12:17:37.480Z,247.50
2017-09-11T12:18:37.460Z,168.75
2017-09-11T12:19:37.491Z,146.25
2017-09-11T12:20:37.446Z,123.75
2017-09-11T12:21:37.438Z,146.25
2017-09-11T12:22:37.431Z,241.88
2017-09-11T12:23:37.775Z,191.25
2017-09-11T12:24:37.413Z,112.50
2017-09-11T12:25:37.401Z,101.25
2017-09-11T12:26:37.417Z,151.88
2017-09-11T12:27:37.398Z,135.00
2017-09-11T12:28:37.379Z,129.38
2017-09-11T12:29:37.395Z,135.00
2017-09-11T12:30:37.363Z,95.63
2017-09-11T12:31:37.358Z,95.63
2017-09-11T12:32:37.358Z,106.88
2017-09-11T12:33:37.717Z,95.63
2017-09-11T12:34:37.327Z,95.63
2017-09-11T12:35:37.323Z,95.63
2017-09-11T12:36:37.316Z,118.13
2017-09-11T12:37:37.312Z,106.88
2017-09-11T12:38:37.306Z,101.25
2017-09-11T12:39:37.707Z,95.63
2017-09-11T12:40:37.277Z,106.88
2017-09-11T12:41:37.278Z,95.63
2017-09-11T12:42:37.266Z,101.25
2017-09-11T12:43:37.250Z,101.25
2017-09-11T12:44:37.242Z,95.63
2017-09-11T12:45:37.648Z,101.25
2017-09-11T12:46:37.232Z,101.25
2017-09-11T12:47:37.225Z,106.88
2017-09-11T12:48:37.217Z,106.88
2017-09-11T12:49:37.206Z,101.25
2017-09-11T12:50:37.197Z,163.13
2017-09-11T12:51:37.227Z,95.63
2017-09-11T12:52:37.176Z,101.25
2017-09-11T12:53:37.170Z,146.25
2017-09-11T12:54:37.168Z,118.13
2017-09-11T12:55:37.154Z,106.88
2017-09-11T12:56:37.596Z,112.50
2017-09-11T12:57:37.147Z,101.25
2017-09-11T12:58:37.129Z,123.75
2017-09-11T12:59:37.118Z,135.00
2017-09-11T13:00:37.113Z,118.13
2017-09-11T13:01:37.109Z,123.75
2017-09-11T13:02:37.127Z,112.50